Ferrisburg, Vermont
Current Conditions -  °F | °C
As of 12:35 PM on Thursday 30 Oct 2014 (Local Time) from K6B0 Reporting Station
Scattered Clouds Scattered Clouds  
Wind Chill: 48°   Ceiling: Unl
Heat Index: 48°   Visibility: 10mi
Dew Point: 38°   Wind: 3mph
Humidity: 68%   Direction: 360°N
Pressure: 29.95"   Gusts: NA
Location:  44.2128°N, 73.2586°W
Report Text: K6B0 301635Z AUTO 36003KT 10SM SCT036 SCT047 09/03 A2995 RMK AO2 T00910034
Loading
Personal Weather Stations






























Interactive Weather Map
Tropical Storm Tracking
New forecast layout! Learn more

10-Day Weather Forecast

Advertisements
Track Severe Weather on mobile